Terminal Aerodrome Forecast
Issued by NWS Wilmington, OH

Current Version | Previous Version | Graphics & Text | Print | Product List | Glossary On
Versions: 1 2 3 4 5 6 7 8 9 10 11 12 13 14 15 16 17 18 19 20 21
439
FTUS41 KILN 251138
TAFILN
TAF
KILN 251138Z 2512/2612 23008KT P6SM SCT018 BKN040
      TEMPO 2512/2514 BKN018
     FM251600 23010G18KT P6SM SCT040
     FM260000 27006KT P6SM SCT250
     FM260500 32005KT P6SM SCT250
     FM261100 36005KT P6SM SCT250=

USA.gov is the U.S. government's official web portal to all federal, state and local government web resources and services.